createdAt,value
2019-05-11T00:00:34.288Z,78.48
2019-05-11T00:03:03.676Z,78.50
2019-05-11T00:05:32.953Z,78.68
2019-05-11T00:08:02.299Z,78.60
2019-05-11T00:10:31.482Z,79.19
2019-05-11T00:13:00.707Z,78.98
2019-05-11T00:15:29.965Z,79.18
2019-05-11T00:17:59.242Z,79.28
2019-05-11T00:20:28.617Z,79.11
2019-05-11T00:22:58.021Z,79.23
2019-05-11T00:25:27.253Z,79.14
2019-05-11T00:27:56.543Z,79.02
2019-05-11T00:30:25.990Z,79.03
2019-05-11T00:32:55.271Z,79.15
2019-05-11T00:35:24.607Z,79.22
2019-05-11T00:37:54.089Z,79.08
2019-05-11T00:40:23.408Z,79.24
2019-05-11T00:42:52.801Z,79.11
2019-05-11T00:45:22.071Z,79.16
2019-05-11T00:47:51.509Z,79.31
2019-05-11T00:50:20.733Z,79.21
2019-05-11T00:52:49.967Z,79.15
2019-05-11T00:55:19.178Z,79.18
2019-05-11T00:57:48.372Z,79.01
2019-05-11T01:00:17.629Z,78.89
2019-05-11T01:02:46.878Z,78.87
2019-05-11T01:05:16.148Z,79.01
2019-05-11T01:07:45.391Z,78.99
2019-05-11T01:10:25.265Z,78.95
2019-05-11T01:12:43.921Z,79.00
2019-05-11T01:15:13.212Z,79.12
2019-05-11T01:17:42.397Z,79.34
2019-05-11T01:20:11.622Z,79.51
2019-05-11T01:22:40.849Z,79.68
2019-05-11T01:25:10.047Z,79.75
2019-05-11T01:27:39.385Z,80.22
2019-05-11T01:30:08.711Z,80.11
2019-05-11T01:32:38.023Z,79.98
2019-05-11T01:35:07.326Z,80.11
2019-05-11T01:37:36.593Z,80.11
2019-05-11T01:40:05.895Z,80.18
2019-05-11T01:42:35.135Z,80.37
2019-05-11T01:45:04.596Z,80.49
2019-05-11T01:47:33.810Z,80.35
2019-05-11T01:50:03.079Z,80.85
2019-05-11T01:52:32.317Z,80.91
2019-05-11T01:55:01.550Z,80.78
2019-05-11T01:57:30.776Z,80.92
2019-05-11T02:00:00.119Z,80.83
2019-05-11T02:02:29.346Z,80.75
2019-05-11T02:05:16.643Z,80.78
2019-05-11T02:07:45.911Z,80.70
2019-05-11T02:10:15.139Z,80.64
2019-05-11T02:12:44.337Z,80.56
2019-05-11T02:15:13.541Z,80.60
2019-05-11T02:17:42.731Z,80.66
2019-05-11T02:20:11.995Z,80.68
2019-05-11T02:22:41.207Z,80.73
2019-05-11T02:25:10.499Z,80.80
2019-05-11T02:27:39.710Z,80.77
2019-05-11T02:30:09.033Z,80.84
2019-05-11T02:32:38.223Z,80.97
2019-05-11T02:35:07.447Z,81.11
2019-05-11T02:37:36.692Z,81.22
2019-05-11T02:40:06.227Z,81.15
2019-05-11T02:42:35.472Z,81.16
2019-05-11T02:45:05.028Z,81.28
2019-05-11T02:47:34.267Z,81.26
2019-05-11T02:50:03.829Z,81.53
2019-05-11T02:52:32.947Z,81.70
2019-05-11T02:55:02.320Z,81.75
2019-05-11T02:57:31.526Z,81.62
2019-05-11T03:00:00.730Z,81.62
2019-05-11T03:02:29.903Z,81.92
2019-05-11T03:04:59.102Z,81.99
2019-05-11T03:07:28.345Z,82.00
2019-05-11T03:09:57.512Z,82.00
2019-05-11T03:12:26.746Z,82.10
2019-05-11T03:14:55.934Z,82.10
2019-05-11T03:17:29.778Z,81.89
2019-05-11T03:19:59.015Z,81.83
2019-05-11T03:22:28.245Z,81.83
2019-05-11T03:24:57.492Z,81.87
2019-05-11T03:27:26.703Z,81.64
2019-05-11T03:30:00.299Z,81.55
2019-05-11T03:32:25.091Z,81.06
2019-05-11T03:34:54.286Z,81.06
2019-05-11T03:37:23.558Z,80.79
2019-05-11T03:39:52.810Z,80.79
2019-05-11T03:42:22.031Z,80.92
2019-05-11T03:44:51.316Z,80.76
2019-05-11T03:47:20.532Z,80.76
2019-05-11T03:49:49.720Z,80.33
2019-05-11T03:52:18.915Z,80.54
2019-05-11T03:54:48.163Z,80.33
2019-05-11T03:57:17.401Z,80.44
2019-05-11T03:59:46.701Z,80.28
2019-05-11T04:02:15.907Z,80.01
2019-05-11T04:04:45.210Z,79.99
2019-05-11T04:07:14.467Z,79.55
2019-05-11T04:09:43.720Z,79.40
2019-05-11T04:12:32.887Z,79.37
2019-05-11T04:14:43.762Z,79.08
2019-05-11T04:17:12.974Z,78.86
2019-05-11T04:19:42.242Z,79.11
2019-05-11T04:22:11.566Z,78.69
2019-05-11T04:24:40.760Z,78.69
2019-05-11T04:27:10.251Z,78.36
2019-05-11T04:29:39.376Z,78.50
2019-05-11T04:32:08.600Z,77.74
2019-05-11T04:34:37.815Z,77.74
2019-05-11T04:37:07.055Z,78.14
2019-05-11T04:39:36.337Z,78.11
2019-05-11T04:42:05.547Z,78.32
2019-05-11T04:44:34.763Z,78.32
2019-05-11T04:47:04.058Z,77.99
2019-05-11T04:49:33.370Z,78.01
2019-05-11T04:52:02.653Z,77.76
2019-05-11T04:54:31.970Z,77.73
2019-05-11T04:57:01.256Z,77.42
2019-05-11T04:59:30.461Z,77.31
2019-05-11T05:01:59.659Z,77.28
2019-05-11T05:04:28.972Z,77.16
2019-05-11T05:07:00.150Z,77.06
2019-05-11T05:09:27.543Z,76.36
2019-05-11T05:11:56.615Z,76.36
2019-05-11T05:14:25.851Z,76.41
2019-05-11T05:16:55.085Z,76.41
2019-05-11T05:19:24.309Z,76.50
2019-05-11T05:21:53.510Z,76.54
2019-05-11T05:24:22.731Z,76.39
2019-05-11T05:26:52.038Z,75.89
2019-05-11T05:29:21.264Z,75.64
2019-05-11T05:31:50.511Z,75.46
2019-05-11T05:34:19.757Z,75.50
2019-05-11T05:36:49.047Z,75.50
2019-05-11T05:39:18.288Z,74.93
2019-05-11T05:41:56.554Z,74.56
2019-05-11T05:44:16.872Z,73.98
2019-05-11T05:46:46.148Z,74.12
2019-05-11T05:49:15.467Z,73.31
2019-05-11T05:51:44.745Z,72.95
2019-05-11T05:54:13.954Z,71.91
2019-05-11T05:56:43.158Z,71.86
2019-05-11T05:59:12.469Z,71.30
2019-05-11T06:01:41.668Z,71.14
2019-05-11T06:04:10.901Z,70.40
2019-05-11T06:06:40.142Z,69.82
2019-05-11T06:09:09.437Z,69.13
2019-05-11T06:11:38.743Z,68.71
2019-05-11T06:14:07.955Z,68.59
2019-05-11T06:16:37.159Z,66.63
2019-05-11T06:19:06.401Z,67.01
2019-05-11T06:21:35.639Z,66.97
2019-05-11T06:24:07.608Z,66.58
2019-05-11T06:26:34.066Z,65.81
2019-05-11T06:29:03.289Z,65.14
2019-05-11T06:31:33.299Z,65.64
2019-05-11T06:34:02.536Z,66.19
2019-05-11T06:36:31.892Z,65.95
2019-05-11T06:39:01.043Z,65.95
2019-05-11T06:41:30.311Z,65.93
2019-05-11T06:44:02.174Z,65.25
2019-05-11T06:46:28.786Z,64.99
2019-05-11T06:48:58.070Z,64.72
2019-05-11T06:51:27.290Z,64.39
2019-05-11T06:53:56.729Z,64.68
2019-05-11T06:56:26.006Z,64.63
2019-05-11T06:58:55.205Z,62.67
2019-05-11T07:01:24.555Z,63.13
2019-05-11T07:03:53.730Z,63.02
2019-05-11T07:06:26.879Z,62.69
2019-05-11T07:08:52.256Z,62.25
2019-05-11T07:11:21.577Z,61.81
2019-05-11T07:13:50.787Z,61.46
2019-05-11T07:16:20.001Z,60.76
2019-05-11T07:18:49.236Z,61.35
2019-05-11T07:21:18.522Z,61.15
2019-05-11T07:23:47.719Z,61.45
2019-05-11T07:26:16.935Z,61.11
2019-05-11T07:28:46.178Z,62.97
2019-05-11T07:31:15.423Z,62.78
2019-05-11T07:33:44.634Z,62.02
2019-05-11T07:36:13.966Z,61.93
2019-05-11T07:38:43.215Z,62.87
2019-05-11T07:41:12.438Z,62.49
2019-05-11T07:43:41.646Z,62.75
2019-05-11T07:46:10.859Z,62.32
2019-05-11T07:48:40.053Z,61.89
2019-05-11T07:51:09.242Z,62.28
2019-05-11T07:53:38.424Z,63.20
2019-05-11T07:56:08.296Z,62.38
2019-05-11T07:58:38.710Z,62.14
2019-05-11T08:01:08.510Z,61.46
2019-05-11T08:03:35.419Z,62.00
2019-05-11T08:06:04.659Z,62.47
2019-05-11T08:08:33.861Z,62.38
2019-05-11T08:11:03.069Z,61.97
2019-05-11T08:13:32.275Z,62.30
2019-05-11T08:16:01.562Z,62.41
2019-05-11T08:18:30.774Z,63.05
2019-05-11T08:21:00.017Z,63.84
2019-05-11T08:23:29.242Z,64.35
2019-05-11T08:25:58.569Z,64.23
2019-05-11T08:28:28.800Z,64.41
2019-05-11T08:30:57.892Z,64.80
2019-05-11T08:33:28.407Z,64.98
2019-05-11T08:35:58.077Z,64.92
2019-05-11T08:38:24.938Z,65.56
2019-05-11T08:40:54.148Z,66.12
2019-05-11T08:43:23.448Z,66.84
2019-05-11T08:45:52.650Z,66.99
2019-05-11T08:48:21.893Z,67.05
2019-05-11T08:50:51.088Z,67.46
2019-05-11T08:53:20.330Z,67.58
2019-05-11T08:55:49.510Z,68.00
2019-05-11T08:58:19.615Z,67.89
2019-05-11T09:00:48.634Z,68.20
2019-05-11T09:03:18.065Z,68.65
2019-05-11T09:05:48.560Z,68.74
2019-05-11T09:08:18.836Z,68.56
2019-05-11T09:10:48.824Z,69.12
2019-05-11T09:13:18.385Z,69.82
2019-05-11T09:15:45.125Z,70.15
2019-05-11T09:18:14.342Z,70.00
2019-05-11T09:20:43.552Z,69.87
2019-05-11T09:23:12.809Z,70.40
2019-05-11T09:25:42.070Z,70.72
2019-05-11T09:28:11.337Z,70.62
2019-05-11T09:30:40.575Z,70.72
2019-05-11T09:33:09.798Z,70.74
2019-05-11T09:35:47.592Z,70.81
2019-05-11T09:38:08.252Z,70.44
2019-05-11T09:40:38.575Z,70.23
2019-05-11T09:43:08.522Z,70.20
2019-05-11T09:45:45.774Z,70.15
2019-05-11T09:48:05.455Z,70.39
2019-05-11T09:50:34.691Z,70.59
2019-05-11T09:53:03.991Z,70.79
2019-05-11T09:55:33.284Z,70.79
2019-05-11T09:58:02.545Z,71.00
2019-05-11T10:00:31.813Z,71.15
2019-05-11T10:03:01.061Z,70.66
2019-05-11T10:05:30.282Z,70.83
2019-05-11T10:07:59.593Z,70.92
2019-05-11T10:10:29.131Z,71.33
2019-05-11T10:12:59.046Z,71.57
2019-05-11T10:15:27.961Z,72.23
2019-05-11T10:17:59.106Z,72.00
2019-05-11T10:20:28.633Z,72.11
2019-05-11T10:22:57.944Z,72.87
2019-05-11T10:25:28.510Z,73.51
2019-05-11T10:27:57.849Z,73.57
2019-05-11T10:30:25.065Z,73.33
2019-05-11T10:32:54.304Z,73.70
2019-05-11T10:35:23.602Z,73.86
2019-05-11T10:37:52.822Z,74.54
2019-05-11T10:40:22.122Z,74.44
2019-05-11T10:42:51.332Z,74.48
2019-05-11T10:45:20.548Z,74.18
2019-05-11T10:47:53.422Z,74.09
2019-05-11T10:50:19.191Z,74.42
2019-05-11T10:52:48.602Z,74.28
2019-05-11T10:55:19.361Z,74.24
2019-05-11T10:57:48.738Z,74.45
2019-05-11T11:00:17.820Z,74.51
2019-05-11T11:02:47.694Z,74.14
2019-05-11T11:05:15.217Z,74.51
2019-05-11T11:07:44.544Z,73.59
2019-05-11T11:10:13.751Z,72.54
2019-05-11T11:12:42.960Z,72.98
2019-05-11T11:15:12.198Z,72.60
2019-05-11T11:17:41.401Z,72.20
2019-05-11T11:20:10.628Z,71.47
2019-05-11T11:22:43.897Z,70.83
2019-05-11T11:25:09.197Z,70.56
2019-05-11T11:27:38.419Z,69.99
2019-05-11T11:30:09.126Z,69.22
2019-05-11T11:32:38.318Z,69.32
2019-05-11T11:35:08.241Z,70.55
2019-05-11T11:37:35.430Z,69.31
2019-05-11T11:40:05.552Z,69.10
2019-05-11T11:42:34.808Z,68.80
2019-05-11T11:45:04.595Z,69.76
2019-05-11T11:47:33.832Z,68.33
2019-05-11T11:50:03.165Z,69.65
2019-05-11T11:52:32.362Z,68.63
2019-05-11T11:55:01.581Z,68.17
2019-05-11T11:57:30.864Z,68.08
2019-05-11T12:00:00.086Z,67.52
2019-05-11T12:02:29.300Z,67.48
2019-05-11T12:04:58.526Z,68.37
2019-05-11T12:07:28.515Z,68.20
2019-05-11T12:09:58.754Z,68.57
2019-05-11T12:12:27.963Z,68.46
2019-05-11T12:14:55.498Z,68.26
2019-05-11T12:17:24.755Z,68.57
2019-05-11T12:19:54.070Z,69.04
2019-05-11T12:22:23.402Z,69.60
2019-05-11T12:24:52.666Z,69.47
2019-05-11T12:27:21.900Z,69.52
2019-05-11T12:29:51.125Z,69.27
2019-05-11T12:32:24.310Z,70.13
2019-05-11T12:34:53.541Z,70.79
2019-05-11T12:37:22.850Z,70.94
2019-05-11T12:39:52.174Z,70.95
2019-05-11T12:42:21.522Z,70.50
2019-05-11T12:44:50.794Z,69.37
2019-05-11T12:47:24.858Z,69.80
2019-05-11T12:49:49.364Z,70.25
2019-05-11T12:52:18.693Z,70.40
2019-05-11T12:54:48.044Z,70.61
2019-05-11T12:57:18.685Z,70.62
2019-05-11T12:59:48.688Z,70.71
2019-05-11T13:02:15.778Z,70.70
2019-05-11T13:04:45.070Z,69.87
2019-05-11T13:07:16.599Z,69.59
2019-05-11T13:09:43.676Z,68.46
2019-05-11T13:12:12.914Z,68.47
2019-05-11T13:14:42.172Z,68.00
2019-05-11T13:17:11.480Z,67.76
2019-05-11T13:19:40.807Z,67.84
2019-05-11T13:22:10.025Z,67.57
2019-05-11T13:24:39.283Z,67.15
2019-05-11T13:27:08.522Z,66.77
2019-05-11T13:29:37.932Z,65.86
2019-05-11T13:32:07.830Z,64.26
2019-05-11T13:34:38.592Z,63.87
2019-05-11T13:37:08.686Z,64.67
2019-05-11T13:39:34.686Z,64.96
2019-05-11T13:42:03.934Z,64.96
2019-05-11T13:44:33.123Z,64.49
2019-05-11T13:47:02.394Z,63.80
2019-05-11T13:49:32.574Z,63.45
2019-05-11T13:52:01.132Z,62.89
2019-05-11T13:54:30.554Z,61.35
2019-05-11T13:57:00.047Z,59.44
2019-05-11T13:59:29.302Z,58.13
2019-05-11T14:01:58.595Z,58.89
2019-05-11T14:04:28.235Z,58.55
2019-05-11T14:06:58.586Z,59.51
2019-05-11T14:09:28.691Z,58.51
2019-05-11T14:11:55.492Z,58.45
2019-05-11T14:14:24.788Z,57.05
2019-05-11T14:16:54.089Z,56.80
2019-05-11T14:19:23.435Z,55.35
2019-05-11T14:21:52.648Z,56.08
2019-05-11T14:24:22.036Z,56.15
2019-05-11T14:26:51.282Z,54.53
2019-05-11T14:29:20.607Z,55.27
2019-05-11T14:31:49.878Z,55.16
2019-05-11T14:34:19.206Z,54.75
2019-05-11T14:36:48.490Z,53.83
2019-05-11T14:39:18.937Z,53.89
2019-05-11T14:41:48.731Z,52.95
2019-05-11T14:44:18.135Z,53.64
2019-05-11T14:46:47.718Z,53.54
2019-05-11T14:49:14.822Z,53.35
2019-05-11T14:52:02.329Z,53.54
2019-05-11T14:54:49.959Z,53.52
2019-05-11T14:57:39.698Z,52.37
2019-05-11T15:00:25.455Z,52.13
2019-05-11T15:03:13.135Z,52.41
2019-05-11T15:06:00.781Z,52.24
2019-05-11T15:08:49.583Z,52.15
2019-05-11T15:11:38.799Z,50.89
2019-05-11T15:14:25.798Z,51.46
2019-05-11T15:17:13.552Z,50.71
2019-05-11T15:20:01.090Z,50.81
2019-05-11T15:22:49.072Z,49.91
2019-05-11T15:25:38.202Z,51.32
2019-05-11T15:28:24.910Z,50.67
2019-05-11T15:31:12.480Z,50.07
2019-05-11T15:34:00.037Z,50.35
2019-05-11T15:36:49.099Z,50.34
2019-05-11T15:39:35.196Z,50.64
2019-05-11T15:42:22.593Z,50.65
2019-05-11T15:45:11.030Z,51.84
2019-05-11T15:47:59.074Z,52.29
2019-05-11T15:50:48.462Z,53.50
2019-05-11T15:53:34.192Z,51.39
2019-05-11T15:56:21.900Z,50.35
2019-05-11T15:59:09.976Z,49.63
2019-05-11T16:01:58.275Z,50.09
2019-05-11T16:04:45.987Z,49.38
2019-05-11T16:07:33.505Z,49.37
2019-05-11T16:10:21.647Z,46.47
2019-05-11T16:13:09.434Z,45.98
2019-05-11T16:15:57.766Z,44.28
2019-05-11T16:18:44.927Z,40.16
2019-05-11T16:21:32.655Z,39.08
2019-05-11T16:24:20.217Z,39.62
2019-05-11T16:27:08.810Z,38.67
2019-05-11T16:29:56.070Z,40.38
2019-05-11T16:32:44.407Z,38.71
2019-05-11T16:35:31.846Z,38.28
2019-05-11T16:38:20.170Z,36.48
2019-05-11T16:41:09.184Z,35.27
2019-05-11T16:43:58.365Z,35.49
2019-05-11T16:46:44.102Z,36.65
2019-05-11T16:49:32.552Z,37.31
2019-05-11T16:52:19.679Z,37.79
2019-05-11T16:55:08.014Z,37.93
2019-05-11T16:57:58.622Z,40.46
2019-05-11T17:00:43.495Z,43.98
2019-05-11T17:03:31.188Z,46.12
2019-05-11T17:06:19.710Z,46.35
2019-05-11T17:09:08.811Z,48.29
2019-05-11T17:11:55.015Z,49.51
2019-05-11T17:15:01.167Z,49.68
2019-05-11T17:17:49.534Z,50.27
2019-05-11T17:20:37.157Z,49.52
2019-05-11T17:23:25.248Z,49.69
2019-05-11T17:26:12.938Z,49.24
2019-05-11T17:29:00.882Z,49.37
2019-05-11T17:31:49.048Z,49.60
2019-05-11T17:34:38.126Z,50.05
2019-05-11T17:37:24.948Z,51.05
2019-05-11T17:40:12.738Z,51.20
2019-05-11T17:43:00.893Z,51.62
2019-05-11T17:45:49.141Z,52.36
2019-05-11T17:48:38.797Z,52.43
2019-05-11T17:51:25.213Z,53.13
2019-05-11T17:54:12.444Z,53.88
2019-05-11T17:56:59.873Z,54.41
2019-05-11T17:59:47.711Z,55.15
2019-05-11T18:02:35.378Z,55.15
2019-05-11T18:05:22.852Z,55.24
2019-05-11T18:08:10.713Z,55.08
2019-05-11T18:10:58.803Z,55.27
2019-05-11T18:13:48.248Z,54.53
2019-05-11T18:16:34.817Z,53.15
2019-05-11T18:19:31.168Z,49.97
2019-05-11T18:22:18.880Z,50.11
2019-05-11T18:25:08.643Z,48.00
2019-05-11T18:27:54.514Z,47.87
2019-05-11T18:30:42.126Z,47.82
2019-05-11T18:33:29.912Z,47.35
2019-05-11T18:36:18.455Z,47.51
2019-05-11T18:39:07.464Z,46.82
2019-05-11T18:41:55.442Z,45.33
2019-05-11T18:44:43.478Z,45.18
2019-05-11T18:47:31.110Z,44.74
2019-05-11T18:50:30.057Z,44.58
2019-05-11T18:53:09.161Z,44.57
2019-05-11T18:55:54.848Z,45.45
2019-05-11T18:58:43.111Z,45.01
2019-05-11T19:01:31.238Z,45.61
2019-05-11T19:04:18.838Z,45.91
2019-05-11T19:07:16.166Z,46.90
2019-05-11T19:09:54.000Z,47.77
2019-05-11T19:12:42.355Z,48.67
2019-05-11T19:15:30.418Z,50.06
2019-05-11T19:18:17.984Z,51.34
2019-05-11T19:21:05.502Z,52.37
2019-05-11T19:23:53.442Z,54.22
2019-05-11T19:26:41.666Z,55.48
2019-05-11T19:29:29.178Z,56.00
2019-05-11T19:32:19.133Z,56.69
2019-05-11T19:35:05.209Z,57.47
2019-05-11T19:37:52.609Z,58.18
2019-05-11T19:40:40.727Z,58.82
2019-05-11T19:43:28.836Z,59.76
2019-05-11T19:46:18.371Z,59.76
2019-05-11T19:49:04.876Z,60.29
2019-05-11T19:51:52.347Z,60.67
2019-05-11T19:54:40.464Z,61.30
2019-05-11T19:57:28.622Z,61.20
2019-05-11T20:00:18.449Z,61.76
2019-05-11T20:03:04.785Z,62.07
2019-05-11T20:05:52.796Z,62.26
2019-05-11T20:08:40.652Z,62.64
2019-05-11T20:11:28.258Z,63.14
2019-05-11T20:14:16.321Z,63.14
2019-05-11T20:17:03.999Z,63.58
2019-05-11T20:19:51.791Z,63.57
2019-05-11T20:22:42.666Z,63.86
2019-05-11T20:25:30.539Z,64.63
2019-05-11T20:28:18.453Z,65.11
2019-05-11T20:31:07.869Z,65.16
2019-05-11T20:33:53.574Z,65.16
2019-05-11T20:36:41.657Z,65.42
2019-05-11T20:39:29.325Z,65.94
2019-05-11T20:42:18.232Z,65.94
2019-05-11T20:45:07.735Z,66.62
2019-05-11T20:47:53.183Z,66.73
2019-05-11T20:50:40.776Z,66.86
2019-05-11T20:53:28.944Z,67.29
2019-05-11T20:56:17.856Z,67.29
2019-05-11T20:59:04.865Z,67.69
2019-05-11T21:01:52.637Z,67.92
2019-05-11T21:04:40.286Z,67.83
2019-05-11T21:07:28.571Z,67.83
2019-05-11T21:10:16.308Z,68.43
2019-05-11T21:13:04.723Z,68.68
2019-05-11T21:15:52.298Z,69.40
2019-05-11T21:18:40.566Z,69.40
2019-05-11T21:21:30.446Z,69.70
2019-05-11T21:24:18.627Z,69.99
2019-05-11T21:27:04.631Z,70.58
2019-05-11T21:29:52.626Z,70.29
2019-05-11T21:32:40.449Z,70.34
2019-05-11T21:35:28.601Z,70.79
2019-05-11T21:38:17.732Z,70.98
2019-05-11T21:41:04.338Z,70.75
2019-05-11T21:43:52.242Z,70.99
2019-05-11T21:46:39.811Z,71.26
2019-05-11T21:49:27.335Z,71.21
2019-05-11T21:52:15.214Z,71.64
2019-05-11T21:55:02.619Z,71.66
2019-05-11T21:57:50.934Z,72.08
2019-05-11T22:00:39.212Z,72.39
2019-05-11T22:03:28.092Z,72.79
2019-05-11T22:06:15.534Z,73.04
2019-05-11T22:09:03.906Z,73.23
2019-05-11T22:11:52.055Z,73.41
2019-05-11T22:14:40.374Z,73.30
2019-05-11T22:17:30.874Z,73.71
2019-05-11T22:20:18.341Z,73.65
2019-05-11T22:23:03.676Z,73.77
2019-05-11T22:25:51.433Z,74.07
2019-05-11T22:28:39.578Z,73.97
2019-05-11T22:31:28.039Z,74.12
2019-05-11T22:34:14.669Z,74.26
2019-05-11T22:37:03.023Z,74.60
2019-05-11T22:39:50.917Z,74.80
2019-05-11T22:42:38.908Z,75.10
2019-05-11T22:45:27.783Z,75.35
2019-05-11T22:48:15.051Z,75.44
2019-05-11T22:51:02.841Z,75.48
2019-05-11T22:53:50.682Z,75.75
2019-05-11T22:56:38.748Z,75.95
2019-05-11T22:59:28.035Z,75.99
2019-05-11T23:02:14.369Z,75.99
2019-05-11T23:05:02.766Z,76.30
2019-05-11T23:07:50.574Z,76.77
2019-05-11T23:10:38.832Z,76.64
2019-05-11T23:13:27.866Z,76.89
2019-05-11T23:16:14.440Z,76.84
2019-05-11T23:19:02.270Z,76.99
2019-05-11T23:21:50.276Z,77.02
2019-05-11T23:24:38.641Z,77.22
2019-05-11T23:27:28.571Z,77.42
2019-05-11T23:30:14.824Z,77.71
2019-05-11T23:33:02.736Z,77.68
2019-05-11T23:35:50.392Z,77.80
2019-05-11T23:38:38.666Z,77.50
2019-05-11T23:41:28.567Z,77.64
2019-05-11T23:44:13.709Z,77.69
2019-05-11T23:47:01.205Z,77.96
2019-05-11T23:49:48.876Z,77.88
2019-05-11T23:52:38.136Z,78.03
2019-05-11T23:55:24.422Z,78.06
2019-05-11T23:58:12.631Z,78.11
